메인 페이지
METAR-TAF:

METAR-TAF

공항 :

Dothan, 앨라배마, 미국

위도: 31-19-17N, 경도: 085-26-59W, 고도: 122m

현재 날씨관측

예보는 30분 전, 00:53시(UTC)에 발표되었습니다.
북북서6kt
온도 12°C
습도 76%
기압 1018 hPa
시정: 16.1km
고도 3900ft 상공 구름 많음

METAR: KDHN 170053Z 33006KT 10SM BKN039 12/08 A3006 RMK AO2 SLP180 T01220083

시각: 19:23 (01:23 UTC)

예보

예보는 2 시간 3분 전, 23:20시(UTC)에 발표되었습니다.
예보 대상 시간: 17일 00시부터 17일 24시까지 (UTC)
6kt
시정: 10km
고도 3000ft 상공 구름 보통

TAF: KDHN 162320Z 1700/1724 35006KT P6SM SCT030

4,000개 이상의 공항 관측 자료 및 예보 (METAR 및 TAF 보고).

지도상에서 검색 가능한 기상관측소가 노란 점과 빨간 점으로 표시되어 있습니다.

기상관측소 명을 보려면 표시 위로 마우스를 이동하세요.

날씨 관측과 예보를 보려면 클릭하세요.

지도 변경 : 확대하려면 엑스 표시가 있는 녹색 버튼, 축소하려면 빼기 표시가 있는 녹색 버튼, 다음 페이지의 지도를 보려면 녹색 화살표를 클릭하세요.


METAR-TAF: